sensor_id;sensor_type;location;lat;lon;timestamp;pressure;altitude;pressure_sealevel;temperature;humidity
18755;BME280;35061;47.664;9.166;2022-11-14T00:01:19;101635.38;;;7.20;88.00
18755;BME280;35061;47.664;9.166;2022-11-14T00:03:48;101638.48;;;7.25;88.04
18755;BME280;35061;47.664;9.166;2022-11-14T00:06:17;101640.64;;;7.21;87.83
18755;BME280;35061;47.664;9.166;2022-11-14T00:08:45;101645.54;;;7.21;88.00
18755;BME280;35061;47.664;9.166;2022-11-14T00:11:12;101642.66;;;7.21;87.98
18755;BME280;35061;47.664;9.166;2022-11-14T00:13:40;101632.43;;;7.23;88.04
18755;BME280;35061;47.664;9.166;2022-11-14T00:16:08;101636.55;;;7.22;87.64
18755;BME280;35061;47.664;9.166;2022-11-14T00:18:35;101632.20;;;7.18;88.01
18755;BME280;35061;47.664;9.166;2022-11-14T00:21:03;101630.50;;;7.20;88.04
18755;BME280;35061;47.664;9.166;2022-11-14T00:23:31;101624.45;;;7.18;88.04
18755;BME280;35061;47.664;9.166;2022-11-14T00:25:58;101623.53;;;7.21;88.15
18755;BME280;35061;47.664;9.166;2022-11-14T00:28:26;101638.05;;;7.27;88.30
18755;BME280;35061;47.664;9.166;2022-11-14T00:30:54;101637.95;;;7.31;88.16
18755;BME280;35061;47.664;9.166;2022-11-14T00:33:22;101640.34;;;7.32;88.04
18755;BME280;35061;47.664;9.166;2022-11-14T00:35:54;101636.68;;;7.32;88.08
18755;BME280;35061;47.664;9.166;2022-11-14T00:38:22;101633.41;;;7.33;88.18
18755;BME280;35061;47.664;9.166;2022-11-14T00:40:50;101620.30;;;7.36;88.30
18755;BME280;35061;47.664;9.166;2022-11-14T00:43:17;101615.39;;;7.36;88.32
18755;BME280;35061;47.664;9.166;2022-11-14T00:45:46;101608.43;;;7.37;88.11
18755;BME280;35061;47.664;9.166;2022-11-14T00:48:14;101598.29;;;7.36;88.03
18755;BME280;35061;47.664;9.166;2022-11-14T00:50:43;101589.27;;;7.38;88.34
18755;BME280;35061;47.664;9.166;2022-11-14T00:53:11;101590.09;;;7.38;88.18
18755;BME280;35061;47.664;9.166;2022-11-14T00:55:39;101589.66;;;7.40;88.11
18755;BME280;35061;47.664;9.166;2022-11-14T00:58:08;101592.14;;;7.38;88.10
18755;BME280;35061;47.664;9.166;2022-11-14T01:00:35;101590.67;;;7.33;87.98
18755;BME280;35061;47.664;9.166;2022-11-14T01:03:03;101593.52;;;7.33;88.36
18755;BME280;35061;47.664;9.166;2022-11-14T01:05:31;101596.00;;;7.31;88.29
18755;BME280;35061;47.664;9.166;2022-11-14T01:07:59;101602.51;;;7.32;88.19
18755;BME280;35061;47.664;9.166;2022-11-14T01:10:26;101606.70;;;7.27;88.14
18755;BME280;35061;47.664;9.166;2022-11-14T01:12:54;101592.99;;;7.22;88.25
18755;BME280;35061;47.664;9.166;2022-11-14T01:15:22;101593.91;;;7.19;88.35
18755;BME280;35061;47.664;9.166;2022-11-14T01:17:49;101601.20;;;7.20;88.52
18755;BME280;35061;47.664;9.166;2022-11-14T01:20:17;101610.09;;;7.22;88.37
18755;BME280;35061;47.664;9.166;2022-11-14T01:22:45;101604.86;;;7.20;88.35
18755;BME280;35061;47.664;9.166;2022-11-14T01:25:12;101615.91;;;7.18;88.33
18755;BME280;35061;47.664;9.166;2022-11-14T01:27:40;101619.28;;;7.13;88.46
18755;BME280;35061;47.664;9.166;2022-11-14T01:30:08;101608.33;;;7.11;88.47
18755;BME280;35061;47.664;9.166;2022-11-14T01:32:36;101607.22;;;7.09;88.86
18755;BME280;35061;47.664;9.166;2022-11-14T01:35:03;101594.56;;;7.10;88.82
18755;BME280;35061;47.664;9.166;2022-11-14T01:37:31;101585.21;;;7.09;88.71
18755;BME280;35061;47.664;9.166;2022-11-14T01:39:59;101574.16;;;7.11;89.05
18755;BME280;35061;47.664;9.166;2022-11-14T01:42:26;101572.13;;;7.12;88.92
18755;BME280;35061;47.664;9.166;2022-11-14T01:44:54;101572.03;;;7.16;88.85
18755;BME280;35061;47.664;9.166;2022-11-14T01:47:26;101561.90;;;7.15;88.78
18755;BME280;35061;47.664;9.166;2022-11-14T01:49:58;101555.71;;;7.16;88.94
18755;BME280;35061;47.664;9.166;2022-11-14T01:52:36;101561.90;;;7.15;88.89
18755;BME280;35061;47.664;9.166;2022-11-14T01:55:06;101563.46;;;7.16;88.86
18755;BME280;35061;47.664;9.166;2022-11-14T01:57:42;101572.03;;;7.16;88.93
18755;BME280;35061;47.664;9.166;2022-11-14T02:00:11;101575.40;;;7.10;88.74
18755;BME280;35061;47.664;9.166;2022-11-14T02:02:40;101580.44;;;7.06;88.79
18755;BME280;35061;47.664;9.166;2022-11-14T02:05:10;101583.84;;;7.01;88.94
18755;BME280;35061;47.664;9.166;2022-11-14T02:07:40;101594.50;;;6.97;88.98
18755;BME280;35061;47.664;9.166;2022-11-14T02:10:14;101576.25;;;6.94;89.14
18755;BME280;35061;47.664;9.166;2022-11-14T02:12:42;101576.74;;;6.93;89.26
18755;BME280;35061;47.664;9.166;2022-11-14T02:15:12;101573.90;;;6.93;89.35
18755;BME280;35061;47.664;9.166;2022-11-14T02:17:42;101583.22;;;6.93;89.34
18755;BME280;35061;47.664;9.166;2022-11-14T02:22:39;101571.90;;;6.90;89.53
18755;BME280;35061;47.664;9.166;2022-11-14T02:25:09;101569.45;;;6.92;89.66
18755;BME280;35061;47.664;9.166;2022-11-14T02:27:39;101575.14;;;6.92;89.54
18755;BME280;35061;47.664;9.166;2022-11-14T02:30:14;101578.87;;;6.89;89.73
18755;BME280;35061;47.664;9.166;2022-11-14T02:32:42;101574.88;;;6.86;89.81
18755;BME280;35061;47.664;9.166;2022-11-14T02:35:30;101576.58;;;6.83;89.63
18755;BME280;35061;47.664;9.166;2022-11-14T02:37:57;101572.59;;;6.81;89.80
18755;BME280;35061;47.664;9.166;2022-11-14T02:40:25;101576.31;;;6.78;90.01
18755;BME280;35061;47.664;9.166;2022-11-14T02:42:53;101568.56;;;6.78;90.18
18755;BME280;35061;47.664;9.166;2022-11-14T02:45:21;101570.62;;;6.78;90.00
18755;BME280;35061;47.664;9.166;2022-11-14T02:47:48;101560.59;;;6.73;90.04
18755;BME280;35061;47.664;9.166;2022-11-14T02:50:16;101568.30;;;6.73;90.19
18755;BME280;35061;47.664;9.166;2022-11-14T02:52:44;101565.23;;;6.67;90.30
18755;BME280;35061;47.664;9.166;2022-11-14T02:55:12;101565.23;;;6.67;90.49
18755;BME280;35061;47.664;9.166;2022-11-14T02:57:39;101565.23;;;6.67;90.67
18755;BME280;35061;47.664;9.166;2022-11-14T03:00:07;101566.02;;;6.67;90.86
18755;BME280;35061;47.664;9.166;2022-11-14T03:02:40;101571.73;;;6.67;90.65
18755;BME280;35061;47.664;9.166;2022-11-14T03:05:08;101585.96;;;6.67;90.76
18755;BME280;35061;47.664;9.166;2022-11-14T03:07:35;101580.34;;;6.64;90.85
18755;BME280;35061;47.664;9.166;2022-11-14T03:10:04;101577.49;;;6.64;91.13
18755;BME280;35061;47.664;9.166;2022-11-14T03:12:32;101571.48;;;6.62;91.12
18755;BME280;35061;47.664;9.166;2022-11-14T03:14:59;101568.27;;;6.60;91.33
18755;BME280;35061;47.664;9.166;2022-11-14T03:17:30;101571.54;;;6.58;91.40
18755;BME280;35061;47.664;9.166;2022-11-14T03:19:58;101572.36;;;6.59;91.42
18755;BME280;35061;47.664;9.166;2022-11-14T03:22:26;101567.88;;;6.57;91.62
18755;BME280;35061;47.664;9.166;2022-11-14T03:24:54;101558.13;;;6.59;91.70
18755;BME280;35061;47.664;9.166;2022-11-14T03:27:22;101560.98;;;6.59;91.75
18755;BME280;35061;47.664;9.166;2022-11-14T03:29:49;101560.16;;;6.58;91.92
18755;BME280;35061;47.664;9.166;2022-11-14T03:32:17;101562.19;;;6.57;91.94
18755;BME280;35061;47.664;9.166;2022-11-14T03:34:45;101558.13;;;6.59;92.13
18755;BME280;35061;47.664;9.166;2022-11-14T03:37:12;101554.38;;;6.62;91.98
18755;BME280;35061;47.664;9.166;2022-11-14T03:39:40;101549.96;;;6.61;91.87
18755;BME280;35061;47.664;9.166;2022-11-14T03:42:08;101557.68;;;6.60;92.06
18755;BME280;35061;47.664;9.166;2022-11-14T03:44:36;101556.44;;;6.61;92.04
18755;BME280;35061;47.664;9.166;2022-11-14T03:47:03;101559.73;;;6.60;92.01
18755;BME280;35061;47.664;9.166;2022-11-14T03:49:31;101563.82;;;6.59;92.00
18755;BME280;35061;47.664;9.166;2022-11-14T03:51:59;101566.67;;;6.59;92.13
18755;BME280;35061;47.664;9.166;2022-11-14T03:54:26;101553.33;;;6.55;92.08
18755;BME280;35061;47.664;9.166;2022-11-14T03:56:54;101568.80;;;6.54;92.18
18755;BME280;35061;47.664;9.166;2022-11-14T03:59:22;101565.52;;;6.56;92.33
18755;BME280;35061;47.664;9.166;2022-11-14T04:01:49;101561.08;;;6.55;92.16
18755;BME280;35061;47.664;9.166;2022-11-14T04:04:17;101563.10;;;6.54;92.32
18755;BME280;35061;47.664;9.166;2022-11-14T04:06:45;101560.98;;;6.59;92.81
18755;BME280;35061;47.664;9.166;2022-11-14T04:09:13;101561.41;;;6.57;92.40
18755;BME280;35061;47.664;9.166;2022-11-14T04:11:40;101566.67;;;6.59;92.66
18755;BME280;35061;47.664;9.166;2022-11-14T04:14:08;101571.54;;;6.58;92.63
18755;BME280;35061;47.664;9.166;2022-11-14T04:16:36;101563.37;;;6.60;92.82
18755;BME280;35061;47.664;9.166;2022-11-14T04:19:04;101558.82;;;6.63;93.00
18755;BME280;35061;47.664;9.166;2022-11-14T04:21:32;101558.27;;;6.68;93.21
18755;BME280;35061;47.664;9.166;2022-11-14T04:23:59;101548.39;;;6.73;93.02
18755;BME280;35061;47.664;9.166;2022-11-14T04:26:32;101554.08;;;6.73;92.88
18755;BME280;35061;47.664;9.166;2022-11-14T04:29:00;101549.44;;;6.79;93.29
18755;BME280;35061;47.664;9.166;2022-11-14T04:31:27;101543.19;;;6.84;93.16
18755;BME280;35061;47.664;9.166;2022-11-14T04:33:55;101546.30;;;6.90;93.22
18755;BME280;35061;47.664;9.166;2022-11-14T04:36:23;101547.02;;;6.94;92.80
18755;BME280;35061;47.664;9.166;2022-11-14T04:38:50;101539.23;;;6.94;92.82
18755;BME280;35061;47.664;9.166;2022-11-14T04:41:18;101528.31;;;6.93;92.66
18755;BME280;35061;47.664;9.166;2022-11-14T04:43:45;101527.49;;;6.92;92.71
18755;BME280;35061;47.664;9.166;2022-11-14T04:46:16;101525.14;;;6.91;92.64
18755;BME280;35061;47.664;9.166;2022-11-14T04:48:44;101520.66;;;6.90;92.68
18755;BME280;35061;47.664;9.166;2022-11-14T04:51:11;101511.77;;;6.88;92.53
18755;BME280;35061;47.664;9.166;2022-11-14T04:53:39;101512.26;;;6.86;92.63
18755;BME280;35061;47.664;9.166;2022-11-14T04:56:07;101520.40;;;6.84;92.59
18755;BME280;35061;47.664;9.166;2022-11-14T04:58:34;101518.37;;;6.84;92.87
18755;BME280;35061;47.664;9.166;2022-11-14T05:01:09;101519.19;;;6.85;92.93
18755;BME280;35061;47.664;9.166;2022-11-14T05:03:37;101510.98;;;6.87;92.88
18755;BME280;35061;47.664;9.166;2022-11-14T05:06:05;101506.08;;;6.88;92.62
18755;BME280;35061;47.664;9.166;2022-11-14T05:08:33;101506.08;;;6.88;92.71
18755;BME280;35061;47.664;9.166;2022-11-14T05:11:00;101506.08;;;6.88;92.46
18755;BME280;35061;47.664;9.166;2022-11-14T05:13:29;101498.78;;;6.87;92.68
18755;BME280;35061;47.664;9.166;2022-11-14T05:15:59;101506.44;;;6.90;92.66
18755;BME280;35061;47.664;9.166;2022-11-14T05:18:27;101503.59;;;6.90;92.76
18755;BME280;35061;47.664;9.166;2022-11-14T05:20:59;101503.23;;;6.88;92.54
18755;BME280;35061;47.664;9.166;2022-11-14T05:23:27;101507.68;;;6.89;92.77
18755;BME280;35061;47.664;9.166;2022-11-14T05:26:14;101499.50;;;6.91;92.97
18755;BME280;35061;47.664;9.166;2022-11-14T05:28:41;101485.97;;;6.95;92.92
18755;BME280;35061;47.664;9.166;2022-11-14T05:31:11;101484.69;;;6.96;92.63
18755;BME280;35061;47.664;9.166;2022-11-14T05:33:40;101485.51;;;6.96;92.82
18755;BME280;35061;47.664;9.166;2022-11-14T05:36:10;101494.30;;;7.02;93.04
18755;BME280;35061;47.664;9.166;2022-11-14T05:38:38;101496.23;;;7.05;92.83
18755;BME280;35061;47.664;9.166;2022-11-14T05:41:07;101496.23;;;7.05;92.67
18755;BME280;35061;47.664;9.166;2022-11-14T05:43:35;101490.55;;;7.05;92.85
18755;BME280;35061;47.664;9.166;2022-11-14T05:46:05;101490.09;;;7.07;92.82
18755;BME280;35061;47.664;9.166;2022-11-14T05:48:33;101498.16;;;7.08;92.94
18755;BME280;35061;47.664;9.166;2022-11-14T05:51:03;101498.88;;;7.12;93.07
18755;BME280;35061;47.664;9.166;2022-11-14T05:53:31;101494.30;;;7.15;92.90
18755;BME280;35061;47.664;9.166;2022-11-14T05:56:04;101492.60;;;7.18;93.09
18755;BME280;35061;47.664;9.166;2022-11-14T05:58:33;101487.24;;;7.20;93.10
18755;BME280;35061;47.664;9.166;2022-11-14T06:01:10;101494.53;;;7.21;92.88
18755;BME280;35061;47.664;9.166;2022-11-14T06:03:42;101483.12;;;7.21;92.99
18755;BME280;35061;47.664;9.166;2022-11-14T06:06:16;101493.75;;;7.20;93.14
18755;BME280;35061;47.664;9.166;2022-11-14T06:08:44;101484.63;;;7.25;93.43
18755;BME280;35061;47.664;9.166;2022-11-14T06:11:18;101478.48;;;7.27;93.13
18755;BME280;35061;47.664;9.166;2022-11-14T06:13:46;101479.30;;;7.28;93.11
18755;BME280;35061;47.664;9.166;2022-11-14T06:16:16;101473.12;;;7.29;93.14
18755;BME280;35061;47.664;9.166;2022-11-14T06:18:45;101470.59;;;7.31;93.14
18755;BME280;35061;47.664;9.166;2022-11-14T06:21:13;101470.59;;;7.31;93.14
18755;BME280;35061;47.664;9.166;2022-11-14T06:23:42;101470.17;;;7.33;93.37
18755;BME280;35061;47.664;9.166;2022-11-14T06:26:30;101479.39;;;7.37;93.32
18755;BME280;35061;47.664;9.166;2022-11-14T06:28:58;101489.53;;;7.38;93.21
18755;BME280;35061;47.664;9.166;2022-11-14T06:31:27;101506.08;;;7.43;93.44
18755;BME280;35061;47.664;9.166;2022-11-14T06:33:54;101508.49;;;7.45;93.41
18755;BME280;35061;47.664;9.166;2022-11-14T06:36:23;101518.53;;;7.49;93.34
18755;BME280;35061;47.664;9.166;2022-11-14T06:38:51;101511.21;;;7.48;93.16
18755;BME280;35061;47.664;9.166;2022-11-14T06:41:20;101527.85;;;7.50;93.11
18755;BME280;35061;47.664;9.166;2022-11-14T06:43:49;101527.20;;;7.46;92.93
18755;BME280;35061;47.664;9.166;2022-11-14T06:46:20;101527.07;;;7.49;92.79
18755;BME280;35061;47.664;9.166;2022-11-14T06:48:48;101519.65;;;7.52;92.96
18755;BME280;35061;47.664;9.166;2022-11-14T06:51:17;101525.56;;;7.58;92.95
18755;BME280;35061;47.664;9.166;2022-11-14T06:53:45;101527.30;;;7.55;92.19
18755;BME280;35061;47.664;9.166;2022-11-14T06:56:14;101532.30;;;7.51;92.59
18755;BME280;35061;47.664;9.166;2022-11-14T06:58:45;101527.07;;;7.49;92.80
18755;BME280;35061;47.664;9.166;2022-11-14T07:01:16;101538.48;;;7.49;93.36
18755;BME280;35061;47.664;9.166;2022-11-14T07:03:44;101527.20;;;7.46;93.09
18755;BME280;35061;47.664;9.166;2022-11-14T07:06:18;101523.27;;;7.39;93.44
18755;BME280;35061;47.664;9.166;2022-11-14T07:08:46;101532.89;;;7.46;93.95
18755;BME280;35061;47.664;9.166;2022-11-14T07:11:16;101527.76;;;7.53;94.29
18755;BME280;35061;47.664;9.166;2022-11-14T07:13:52;101536.98;;;7.58;94.13
18755;BME280;35061;47.664;9.166;2022-11-14T07:16:26;101534.85;;;7.62;93.97
18755;BME280;35061;47.664;9.166;2022-11-14T07:18:59;101538.71;;;7.68;94.07
18755;BME280;35061;47.664;9.166;2022-11-14T07:21:28;101547.60;;;7.70;93.97
18755;BME280;35061;47.664;9.166;2022-11-14T07:23:56;101543.52;;;7.71;94.08
18755;BME280;35061;47.664;9.166;2022-11-14T07:26:25;101549.66;;;7.70;94.11
18755;BME280;35061;47.664;9.166;2022-11-14T07:28:53;101541.42;;;7.72;94.36
18755;BME280;35061;47.664;9.166;2022-11-14T07:31:27;101551.59;;;7.73;94.46
18755;BME280;35061;47.664;9.166;2022-11-14T07:33:55;101555.59;;;7.75;94.56
18755;BME280;35061;47.664;9.166;2022-11-14T07:36:23;101554.44;;;7.73;94.54
18755;BME280;35061;47.664;9.166;2022-11-14T07:38:50;101547.48;;;7.74;94.58
18755;BME280;35061;47.664;9.166;2022-11-14T07:41:18;101554.11;;;7.71;94.70
18755;BME280;35061;47.664;9.166;2022-11-14T07:43:46;101561.05;;;7.70;94.74
18755;BME280;35061;47.664;9.166;2022-11-14T07:46:15;101563.10;;;7.69;94.86
18755;BME280;35061;47.664;9.166;2022-11-14T07:48:44;101576.45;;;7.59;94.93
18755;BME280;35061;47.664;9.166;2022-11-14T07:51:16;101580.44;;;7.49;95.12
18755;BME280;35061;47.664;9.166;2022-11-14T07:53:45;101583.28;;;7.49;95.19
18755;BME280;35061;47.664;9.166;2022-11-14T07:56:12;101584.62;;;7.44;95.37
18755;BME280;35061;47.664;9.166;2022-11-14T07:58:41;101590.77;;;7.43;95.53
18755;BME280;35061;47.664;9.166;2022-11-14T08:01:10;101592.41;;;7.44;95.79
18755;BME280;35061;47.664;9.166;2022-11-14T08:03:39;101597.27;;;7.43;95.68
18755;BME280;35061;47.664;9.166;2022-11-14T08:06:13;101594.10;;;7.41;96.45
18755;BME280;35061;47.664;9.166;2022-11-14T08:08:41;101585.63;;;7.37;96.66
18755;BME280;35061;47.664;9.166;2022-11-14T08:11:10;101584.95;;;7.33;96.73
18755;BME280;35061;47.664;9.166;2022-11-14T08:13:38;101587.01;;;7.33;97.19
18755;BME280;35061;47.664;9.166;2022-11-14T08:16:07;101584.59;;;7.31;97.50
18755;BME280;35061;47.664;9.166;2022-11-14T08:18:39;101581.38;;;7.29;97.85
18755;BME280;35061;47.664;9.166;2022-11-14T08:21:07;101587.11;;;7.29;98.35
18755;BME280;35061;47.664;9.166;2022-11-14T08:23:35;101602.15;;;7.30;98.72
18755;BME280;35061;47.664;9.166;2022-11-14T08:26:03;101601.92;;;7.24;99.23
18755;BME280;35061;47.664;9.166;2022-11-14T08:28:30;101602.80;;;7.21;99.97
18755;BME280;35061;47.664;9.166;2022-11-14T08:31:02;101603.62;;;7.21;100.00
18755;BME280;35061;47.664;9.166;2022-11-14T08:33:31;101609.21;;;7.25;100.00
18755;BME280;35061;47.664;9.166;2022-11-14T08:36:03;101597.80;;;7.25;100.00
18755;BME280;35061;47.664;9.166;2022-11-14T08:38:31;101605.78;;;7.30;100.00
18755;BME280;35061;47.664;9.166;2022-11-14T08:41:00;101614.67;;;7.32;100.00
18755;BME280;35061;47.664;9.166;2022-11-14T08:43:30;101608.52;;;7.34;100.00
18755;BME280;35061;47.664;9.166;2022-11-14T08:46:02;101610.48;;;7.37;100.00
18755;BME280;35061;47.664;9.166;2022-11-14T08:48:31;101604.34;;;7.38;100.00
18755;BME280;35061;47.664;9.166;2022-11-14T08:51:04;101608.43;;;7.37;100.00
18755;BME280;35061;47.664;9.166;2022-11-14T08:53:32;101613.23;;;7.40;100.00
18755;BME280;35061;47.664;9.166;2022-11-14T08:56:00;101609.02;;;7.45;100.00
18755;BME280;35061;47.664;9.166;2022-11-14T08:58:31;101611.66;;;7.52;100.00
18755;BME280;35061;47.664;9.166;2022-11-14T09:01:05;101620.04;;;7.60;100.00
18755;BME280;35061;47.664;9.166;2022-11-14T09:03:33;101622.88;;;7.60;100.00
18755;BME280;35061;47.664;9.166;2022-11-14T09:06:01;101616.24;;;7.63;100.00
18755;BME280;35061;47.664;9.166;2022-11-14T09:08:29;101618.63;;;7.64;100.00
18755;BME280;35061;47.664;9.166;2022-11-14T09:11:01;101627.20;;;7.64;100.00
18755;BME280;35061;47.664;9.166;2022-11-14T09:13:34;101627.55;;;7.66;100.00
18755;BME280;35061;47.664;9.166;2022-11-14T09:16:02;101630.76;;;7.68;100.00
18755;BME280;35061;47.664;9.166;2022-11-14T09:18:31;101622.52;;;7.71;100.00
18755;BME280;35061;47.664;9.166;2022-11-14T09:21:04;101619.77;;;7.67;100.00
18755;BME280;35061;47.664;9.166;2022-11-14T09:23:33;101621.97;;;7.63;100.00
18755;BME280;35061;47.664;9.166;2022-11-14T09:26:06;101620.46;;;7.58;100.00
18755;BME280;35061;47.664;9.166;2022-11-14T09:28:35;101622.16;;;7.56;100.00
18755;BME280;35061;47.664;9.166;2022-11-14T09:31:05;101612.02;;;7.54;100.00
18755;BME280;35061;47.664;9.166;2022-11-14T09:33:34;101603.91;;;7.53;100.00
18755;BME280;35061;47.664;9.166;2022-11-14T09:36:05;101603.55;;;7.51;100.00
18755;BME280;35061;47.664;9.166;2022-11-14T09:38:33;101605.16;;;7.52;100.00
18755;BME280;35061;47.664;9.166;2022-11-14T09:43:54;101598.45;;;7.59;100.00
18755;BME280;35061;47.664;9.166;2022-11-14T09:46:37;101601.53;;;7.64;100.00
18755;BME280;35061;47.664;9.166;2022-11-14T09:49:25;101602.12;;;7.72;100.00
18755;BME280;35061;47.664;9.166;2022-11-14T09:52:01;101605.55;;;7.80;100.00
18755;BME280;35061;47.664;9.166;2022-11-14T09:54:55;101612.29;;;7.86;100.00
18755;BME280;35061;47.664;9.166;2022-11-14T09:57:25;101612.05;;;7.93;100.00
18755;BME280;35061;47.664;9.166;2022-11-14T09:59:54;101600.55;;;7.97;100.00
18755;BME280;35061;47.664;9.166;2022-11-14T10:11:03;101600.19;;;8.21;100.00
18755;BME280;35061;47.664;9.166;2022-11-14T10:16:42;101594.79;;;8.36;100.00
18755;BME280;35061;47.664;9.166;2022-11-14T10:19:32;101587.27;;;8.42;100.00
18755;BME280;35061;47.664;9.166;2022-11-14T10:22:25;101592.30;;;8.51;100.00
18755;BME280;35061;47.664;9.166;2022-11-14T10:28:11;101583.70;;;8.64;100.00
18755;BME280;35061;47.664;9.166;2022-11-14T10:42:02;101598.45;;;8.98;100.00
18755;BME280;35061;47.664;9.166;2022-11-14T10:44:52;101597.84;;;9.03;100.00
18755;BME280;35061;47.664;9.166;2022-11-14T10:47:24;101606.17;;;9.10;100.00
18755;BME280;35061;47.664;9.166;2022-11-14T10:49:55;101591.75;;;9.14;100.00
18755;BME280;35061;47.664;9.166;2022-11-14T10:52:37;101596.98;;;9.15;100.00
18755;BME280;35061;47.664;9.166;2022-11-14T10:55:12;101594.79;;;9.19;100.00
18755;BME280;35061;47.664;9.166;2022-11-14T10:57:42;101590.54;;;9.24;100.00
18755;BME280;35061;47.664;9.166;2022-11-14T11:00:16;101590.54;;;9.24;100.00
18755;BME280;35061;47.664;9.166;2022-11-14T11:02:48;101598.98;;;9.28;100.00
18755;BME280;35061;47.664;9.166;2022-11-14T11:05:18;101595.97;;;9.31;100.00
18755;BME280;35061;47.664;9.166;2022-11-14T11:07:46;101596.79;;;9.32;100.00
18755;BME280;35061;47.664;9.166;2022-11-14T11:10:57;101597.44;;;9.36;100.00
18755;BME280;35061;47.664;9.166;2022-11-14T11:13:53;101593.32;;;9.37;100.00
18755;BME280;35061;47.664;9.166;2022-11-14T11:16:24;101595.28;;;9.40;100.00
18755;BME280;35061;47.664;9.166;2022-11-14T11:18:52;101589.07;;;9.42;100.00
18755;BME280;35061;47.664;9.166;2022-11-14T11:21:21;101591.12;;;9.41;100.00
18755;BME280;35061;47.664;9.166;2022-11-14T11:23:54;101589.40;;;9.44;100.00
18755;BME280;35061;47.664;9.166;2022-11-14T11:34:14;101574.42;;;9.62;100.00
18755;BME280;35061;47.664;9.166;2022-11-14T11:36:46;101570.82;;;9.71;100.00
18755;BME280;35061;47.664;9.166;2022-11-14T11:39:22;101566.87;;;9.77;100.00
18755;BME280;35061;47.664;9.166;2022-11-14T11:41:54;101573.90;;;9.86;100.00
18755;BME280;35061;47.664;9.166;2022-11-14T11:44:44;101573.11;;;9.95;100.00
18755;BME280;35061;47.664;9.166;2022-11-14T11:47:16;101569.48;;;10.03;100.00
18755;BME280;35061;47.664;9.166;2022-11-14T11:49:47;101568.44;;;10.10;100.00
18755;BME280;35061;47.664;9.166;2022-11-14T11:57:46;101558.76;;;10.26;100.00
18755;BME280;35061;47.664;9.166;2022-11-14T12:00:19;101560.36;;;10.27;100.00
18755;BME280;35061;47.664;9.166;2022-11-14T12:02:49;101562.26;;;10.30;100.00
18755;BME280;35061;47.664;9.166;2022-11-14T12:05:31;101560.85;;;10.35;100.00
18755;BME280;35061;47.664;9.166;2022-11-14T12:08:05;101554.30;;;10.34;99.51
18755;BME280;35061;47.664;9.166;2022-11-14T12:10:40;101559.90;;;10.38;99.93
18755;BME280;35061;47.664;9.166;2022-11-14T12:16:13;101568.99;;;10.46;99.43
18755;BME280;35061;47.664;9.166;2022-11-14T12:24:24;101556.80;;;10.73;99.27
18755;BME280;35061;47.664;9.166;2022-11-14T12:32:38;101550.12;;;10.95;99.08
18755;BME280;35061;47.664;9.166;2022-11-14T12:35:31;101554.57;;;11.06;99.10
18755;BME280;35061;47.664;9.166;2022-11-14T12:38:02;101545.16;;;11.14;98.90
18755;BME280;35061;47.664;9.166;2022-11-14T12:40:33;101544.34;;;11.23;98.53
18755;BME280;35061;47.664;9.166;2022-11-14T12:43:02;101555.16;;;11.28;98.41
18755;BME280;35061;47.664;9.166;2022-11-14T12:50:55;101566.27;;;11.45;97.70
18755;BME280;35061;47.664;9.166;2022-11-14T13:04:41;101559.37;;;11.61;96.87
18755;BME280;35061;47.664;9.166;2022-11-14T13:07:24;101550.74;;;11.61;96.57
18755;BME280;35061;47.664;9.166;2022-11-14T13:12:41;101555.06;;;11.66;96.33
18755;BME280;35061;47.664;9.166;2022-11-14T13:15:30;101557.45;;;11.67;96.69
18755;BME280;35061;47.664;9.166;2022-11-14T13:18:23;101557.74;;;11.69;96.37
18755;BME280;35061;47.664;9.166;2022-11-14T13:24:14;101552.31;;;11.71;96.12
18755;BME280;35061;47.664;9.166;2022-11-14T13:26:44;101550.25;;;11.72;95.71
18755;BME280;35061;47.664;9.166;2022-11-14T13:32:11;101546.76;;;11.68;95.53
18755;BME280;35061;47.664;9.166;2022-11-14T13:40:27;101540.73;;;11.56;94.78
18755;BME280;35061;47.664;9.166;2022-11-14T13:49:12;101527.66;;;11.55;95.35
18755;BME280;35061;47.664;9.166;2022-11-14T13:51:45;101530.54;;;11.55;95.44
18755;BME280;35061;47.664;9.166;2022-11-14T13:54:14;101541.23;;;11.55;95.21
18755;BME280;35061;47.664;9.166;2022-11-14T13:59:31;101540.94;;;11.53;94.96
18755;BME280;35061;47.664;9.166;2022-11-14T14:05:01;101531.06;;;11.54;95.16
18755;BME280;35061;47.664;9.166;2022-11-14T14:10:50;101531.35;;;11.56;94.88
18755;BME280;35061;47.664;9.166;2022-11-14T14:19:11;101530.08;;;11.57;95.22
18755;BME280;35061;47.664;9.166;2022-11-14T14:35:35;101545.19;;;11.57;95.81
18755;BME280;35061;47.664;9.166;2022-11-14T14:38:21;101536.59;;;11.57;95.58
18755;BME280;35061;47.664;9.166;2022-11-14T14:40:49;101546.46;;;11.56;95.88
18755;BME280;35061;47.664;9.166;2022-11-14T14:43:27;101547.73;;;11.55;95.73
18755;BME280;35061;47.664;9.166;2022-11-14T14:45:58;101549.83;;;11.55;95.67
18755;BME280;35061;47.664;9.166;2022-11-14T14:48:27;101553.20;;;11.53;95.83
18755;BME280;35061;47.664;9.166;2022-11-14T14:50:58;101547.93;;;11.52;95.83
18755;BME280;35061;47.664;9.166;2022-11-14T14:53:29;101549.99;;;11.51;95.83
18755;BME280;35061;47.664;9.166;2022-11-14T14:56:03;101557.48;;;11.49;95.87
18755;BME280;35061;47.664;9.166;2022-11-14T14:58:32;101543.02;;;11.43;95.94
18755;BME280;35061;47.664;9.166;2022-11-14T15:01:11;101548.91;;;11.39;95.99
18755;BME280;35061;47.664;9.166;2022-11-14T15:03:45;101550.35;;;11.35;96.07
18755;BME280;35061;47.664;9.166;2022-11-14T15:06:26;101548.16;;;11.29;96.03
18755;BME280;35061;47.664;9.166;2022-11-14T15:09:10;101550.38;;;11.25;96.19
18755;BME280;35061;47.664;9.166;2022-11-14T15:11:42;101550.71;;;11.18;96.23
18755;BME280;35061;47.664;9.166;2022-11-14T15:14:22;101555.81;;;11.14;96.18
18755;BME280;35061;47.664;9.166;2022-11-14T15:16:51;101553.91;;;11.11;96.31
18755;BME280;35061;47.664;9.166;2022-11-14T15:19:22;101552.48;;;11.06;96.13
18755;BME280;35061;47.664;9.166;2022-11-14T15:27:51;101556.14;;;10.97;96.87